Time;durP1;ratioP1;P1;durP2;ratioP2;P2;SDS_P1;SDS_P2;PMS_P1;PMS_P2;Temp;Humidity;BMP_temperature;BMP_pressure;BME280_temperature;BME280_humidity;BME280_pressure;Samples;Min_cycle;Max_cycle;Signal;HPM_P1;HPM_P2
2023/08/09 00:02:28;;;;;;;9.23;5.22;;;14.70;99.90;;;;;;7278406;32;20277;-56
2023/08/09 00:06:30;;;;;;;9.32;5.53;;;14.70;99.90;;;;;;7268633;32;20104;-56
2023/08/09 00:10:33;;;;;;;7.60;5.55;;;14.70;99.90;;;;;;7266498;32;20569;-56
2023/08/09 00:14:35;;;;;;;7.45;5.35;;;14.70;99.90;;;;;;7272405;32;20207;-56
2023/08/09 00:18:37;;;;;;;7.22;4.72;;;14.70;99.90;;;;;;7274621;32;20112;-55
2023/08/09 00:22:39;;;;;;;5.82;4.97;;;14.70;99.90;;;;;;7266486;32;20120;-55
2023/08/09 00:26:41;;;;;;;9.75;5.90;;;14.70;99.90;;;;;;7274455;32;20127;-56
2023/08/09 00:30:43;;;;;;;7.50;5.45;;;14.70;99.90;;;;;;7275896;32;20168;-56
2023/08/09 00:34:45;;;;;;;7.60;4.37;;;14.70;99.90;;;;;;7278595;32;20199;-55
2023/08/09 00:38:47;;;;;;;7.65;3.10;;;14.70;99.90;;;;;;7263275;32;20109;-55
2023/08/09 00:42:49;;;;;;;6.37;2.83;;;14.50;99.90;;;;;;7266655;32;20108;-55
2023/08/09 00:46:51;;;;;;;4.68;2.95;;;14.40;99.90;;;;;;7277088;32;20210;-56
2023/08/09 00:50:53;;;;;;;5.57;3.58;;;14.40;99.90;;;;;;7270417;32;20233;-56
2023/08/09 00:54:56;;;;;;;8.75;5.43;;;14.30;99.90;;;;;;7271556;32;20268;-56
2023/08/09 00:58:58;;;;;;;10.18;5.90;;;14.20;99.90;;;;;;7275114;32;20120;-56
2023/08/09 01:03:00;;;;;;;8.48;5.43;;;14.10;99.90;;;;;;7278314;32;20572;-56
2023/08/09 01:07:15;;;;;;;7.57;5.00;;;14.10;99.90;;;;;;7271473;32;20606;-55
2023/08/09 01:11:27;;;;;;;8.00;4.50;;;14.00;99.90;;;;;;7276289;32;20639;-56
2023/08/09 01:15:36;;;;;;;8.77;4.20;;;14.00;99.90;;;;;;7272130;32;20678;-55
2023/08/09 01:19:50;;;;;;;8.85;4.43;;;13.90;99.90;;;;;;7269628;32;20199;-57
2023/08/09 01:23:53;;;;;;;7.65;3.42;;;13.80;99.90;;;;;;7265315;32;20214;-56
2023/08/09 01:27:55;;;;;;;9.10;4.15;;;13.80;99.90;;;;;;7269385;32;20162;-55
2023/08/09 01:31:57;;;;;;;6.65;3.50;;;13.80;99.90;;;;;;7273347;32;20116;-56
2023/08/09 01:36:16;;;;;;;10.38;3.55;;;13.70;99.90;;;;;;7268163;32;20161;-56
2023/08/09 01:40:19;;;;;;;8.40;4.05;;;13.70;99.90;;;;;;7272679;32;20167;-57
2023/08/09 01:44:23;;;;;;;8.23;4.07;;;13.70;99.90;;;;;;7267267;32;20142;-57
2023/08/09 01:48:26;;;;;;;9.45;4.05;;;13.70;99.90;;;;;;7267599;32;20221;-56
2023/08/09 01:52:28;;;;;;;11.60;4.00;;;13.70;99.90;;;;;;7268619;32;20111;-56
2023/08/09 01:56:30;;;;;;;6.18;2.80;;;13.70;99.90;;;;;;7265100;32;20522;-56
2023/08/09 02:00:32;;;;;;;6.47;3.20;;;13.70;99.90;;;;;;7271554;32;20207;-56
2023/08/09 02:04:34;;;;;;;7.30;3.08;;;13.70;99.90;;;;;;7269700;32;20104;-56
2023/08/09 02:08:35;;;;;;;6.10;3.10;;;13.90;99.90;;;;;;7266876;32;20225;-56
2023/08/09 02:12:38;;;;;;;8.13;3.25;;;13.80;99.90;;;;;;7263106;32;20116;-55
2023/08/09 02:16:40;;;;;;;7.47;3.60;;;13.90;99.90;;;;;;7268251;32;20140;-56
2023/08/09 02:20:42;;;;;;;9.23;3.70;;;13.70;99.90;;;;;;7267006;32;20289;-56
2023/08/09 02:24:44;;;;;;;7.22;3.30;;;13.70;99.90;;;;;;7271227;32;20329;-56
2023/08/09 02:28:46;;;;;;;9.55;3.62;;;13.70;99.90;;;;;;7268943;32;20573;-56
2023/08/09 02:32:50;;;;;;;7.07;4.10;;;13.60;99.90;;;;;;7271057;32;20598;-56
2023/08/09 02:36:52;;;;;;;6.03;3.33;;;13.50;99.90;;;;;;7271204;32;20128;-56
2023/08/09 02:40:54;;;;;;;6.12;3.12;;;13.50;99.90;;;;;;7266325;32;20116;-55
2023/08/09 02:44:56;;;;;;;5.68;3.08;;;13.50;99.90;;;;;;7270372;32;20600;-56
2023/08/09 02:48:58;;;;;;;7.07;3.40;;;13.60;99.90;;;;;;7271322;32;20135;-56
2023/08/09 02:53:01;;;;;;;6.12;4.32;;;13.70;99.90;;;;;;7271327;32;20250;-56
2023/08/09 02:57:17;;;;;;;12.85;5.22;;;13.80;99.90;;;;;;7218844;32;20147;-56
2023/08/09 03:01:21;;;;;;;11.00;5.82;;;13.80;99.90;;;;;;7217693;32;20136;-56
2023/08/09 03:05:23;;;;;;;13.38;6.03;;;13.80;99.90;;;;;;7223588;32;20280;-56
2023/08/09 03:09:26;;;;;;;10.02;5.90;;;13.90;99.90;;;;;;7216735;32;20175;-56
2023/08/09 03:13:28;;;;;;;7.45;5.53;;;13.80;99.90;;;;;;7220381;32;20133;-56
2023/08/09 03:17:30;;;;;;;11.35;6.12;;;13.70;99.90;;;;;;7208272;32;20132;-56
2023/08/09 03:21:32;;;;;;;8.90;4.97;;;13.60;99.90;;;;;;7216530;32;20248;-56
2023/08/09 03:25:35;;;;;;;11.25;5.40;;;13.60;99.90;;;;;;7218339;32;20574;-56
2023/08/09 03:29:36;;;;;;;7.80;5.15;;;13.70;99.90;;;;;;7274596;32;20606;-55
2023/08/09 03:33:38;;;;;;;10.77;6.78;;;13.70;99.90;;;;;;7275265;32;20130;-56
2023/08/09 03:37:40;;;;;;;8.70;4.85;;;13.60;99.90;;;;;;7271134;32;20168;-56
2023/08/09 03:41:42;;;;;;;8.40;5.37;;;13.60;99.90;;;;;;7270596;32;20227;-56
2023/08/09 03:45:44;;;;;;;9.85;5.62;;;13.60;99.90;;;;;;7276565;32;20116;-56
2023/08/09 03:49:46;;;;;;;9.77;6.07;;;13.60;99.90;;;;;;7265432;32;20195;-56
2023/08/09 03:53:47;;;;;;;9.82;4.85;;;13.60;99.90;;;;;;7277801;32;20192;-55
2023/08/09 03:57:50;;;;;;;9.85;5.50;;;13.60;99.90;;;;;;7264722;32;20574;-55
2023/08/09 04:01:51;;;;;;;9.88;5.57;;;13.60;99.90;;;;;;7278135;32;22741;-57
2023/08/09 04:05:53;;;;;;;9.48;6.65;;;13.70;99.90;;;;;;7272351;32;20108;-56
2023/08/09 04:09:55;;;;;;;9.10;5.93;;;13.70;99.90;;;;;;7270954;32;20123;-56
2023/08/09 04:13:56;;;;;;;11.15;6.72;;;13.70;99.90;;;;;;7273078;32;20108;-56
2023/08/09 04:17:58;;;;;;;6.18;4.75;;;13.60;99.90;;;;;;7266491;32;20182;-55
2023/08/09 04:22:00;;;;;;;7.28;5.50;;;13.70;99.90;;;;;;7266596;32;20171;-56
2023/08/09 04:26:03;;;;;;;7.43;5.03;;;13.70;99.90;;;;;;7273453;32;20109;-56
2023/08/09 04:30:09;;;;;;;6.70;4.78;;;13.70;99.90;;;;;;7266289;32;20236;-57
2023/08/09 04:34:11;;;;;;;7.65;5.37;;;13.70;99.90;;;;;;7266893;32;20113;-57
2023/08/09 04:38:13;;;;;;;6.18;4.68;;;13.80;99.90;;;;;;7268064;32;20211;-55
2023/08/09 04:42:14;;;;;;;8.23;5.87;;;13.80;99.90;;;;;;7277296;32;20173;-56
2023/08/09 04:46:17;;;;;;;8.98;6.57;;;13.80;99.90;;;;;;7270324;32;20253;-56
2023/08/09 04:50:20;;;;;;;8.57;6.32;;;13.70;99.90;;;;;;7272067;32;20116;-58
2023/08/09 04:54:22;;;;;;;10.35;7.12;;;13.80;99.90;;;;;;7262519;32;20123;-57
2023/08/09 04:58:23;;;;;;;11.90;7.93;;;13.90;99.90;;;;;;7271826;32;20124;-57
2023/08/09 05:02:25;;;;;;;11.70;8.80;;;13.90;99.90;;;;;;7267533;32;20113;-56
2023/08/09 05:06:27;;;;;;;12.45;9.23;;;13.90;99.90;;;;;;7253016;32;20218;-56
2023/08/09 05:10:29;;;;;;;15.10;9.52;;;13.90;99.90;;;;;;7266610;32;20116;-56
2023/08/09 05:14:31;;;;;;;13.05;10.70;;;13.90;99.90;;;;;;7276169;32;20116;-58
2023/08/09 05:18:33;;;;;;;16.15;11.20;;;13.80;99.90;;;;;;7269500;32;20112;-56
2023/08/09 05:22:34;;;;;;;14.35;8.93;;;13.80;99.90;;;;;;7271037;32;20116;-56
2023/08/09 05:26:37;;;;;;;10.90;8.30;;;13.90;99.90;;;;;;7270754;32;20219;-56
2023/08/09 05:30:38;;;;;;;10.68;8.05;;;13.90;99.90;;;;;;7272084;32;20128;-56
2023/08/09 05:34:40;;;;;;;12.93;9.57;;;14.00;99.90;;;;;;7263357;32;20183;-57
2023/08/09 05:38:42;;;;;;;16.05;11.45;;;14.10;99.90;;;;;;7278116;32;20235;-57
2023/08/09 05:42:44;;;;;;;15.55;10.60;;;14.10;99.90;;;;;;7268701;32;20112;-57
2023/08/09 05:46:45;;;;;;;13.88;11.02;;;14.10;99.90;;;;;;7266614;32;20195;-57
2023/08/09 05:50:48;;;;;;;15.77;10.95;;;14.20;99.90;;;;;;7267009;32;20223;-56
2023/08/09 05:54:49;;;;;;;15.95;10.77;;;14.40;99.90;;;;;;7261451;32;20184;-56
2023/08/09 05:58:51;;;;;;;14.43;10.32;;;14.40;99.90;;;;;;7270138;32;20169;-56
2023/08/09 06:02:53;;;;;;;13.32;10.07;;;14.40;99.90;;;;;;7267933;32;20104;-57
2023/08/09 06:06:55;;;;;;;13.55;9.38;;;14.40;99.90;;;;;;7265433;32;20101;-57
2023/08/09 06:10:57;;;;;;;13.10;10.77;;;14.50;99.90;;;;;;7271250;32;20407;-56
2023/08/09 06:14:58;;;;;;;14.60;10.77;;;14.60;99.90;;;;;;7270968;32;20111;-56
2023/08/09 06:19:00;;;;;;;14.43;10.82;;;14.70;99.90;;;;;;7267417;32;20182;-56
2023/08/09 06:23:02;;;;;;;16.50;14.30;;;14.70;99.90;;;;;;7266701;32;20176;-57
2023/08/09 06:27:04;;;;;;;16.42;13.48;;;14.70;99.90;;;;;;7269168;32;20195;-56
2023/08/09 06:31:06;;;;;;;14.98;13.23;;;14.80;99.90;;;;;;7262906;32;21452;-56
2023/08/09 06:35:09;;;;;;;14.95;12.70;;;14.90;99.90;;;;;;7276221;32;20168;-57
2023/08/09 06:39:11;;;;;;;14.50;13.02;;;15.10;99.90;;;;;;7269389;32;20123;-58
2023/08/09 06:43:13;;;;;;;16.60;13.23;;;15.30;99.90;;;;;;7277042;32;20165;-56
2023/08/09 06:47:14;;;;;;;18.10;13.45;;;15.40;99.90;;;;;;7272033;32;20172;-57
2023/08/09 06:51:18;;;;;;;13.75;12.35;;;15.50;99.90;;;;;;7265717;32;20134;-56
2023/08/09 06:55:20;;;;;;;17.27;13.77;;;15.50;99.90;;;;;;7272061;32;20286;-56
2023/08/09 06:59:22;;;;;;;19.40;15.05;;;15.20;99.90;;;;;;7270720;32;20436;-57
2023/08/09 07:03:23;;;;;;;15.32;13.02;;;15.10;99.90;;;;;;7270660;32;20168;-57
2023/08/09 07:07:25;;;;;;;16.40;13.95;;;15.00;99.90;;;;;;7267591;32;20117;-57
2023/08/09 07:11:27;;;;;;;16.27;13.77;;;15.00;99.90;;;;;;7274714;32;20203;-56
2023/08/09 07:15:29;;;;;;;24.48;16.20;;;15.00;99.90;;;;;;7269926;32;20552;-56
2023/08/09 07:19:30;;;;;;;21.05;16.87;;;15.00;99.90;;;;;;7272066;32;20127;-55
2023/08/09 07:23:32;;;;;;;15.73;12.73;;;15.30;99.90;;;;;;7274141;32;20140;-58
2023/08/09 07:27:54;;;;;;;15.00;10.85;;;15.80;99.90;;;;;;7268736;32;20134;-56
2023/08/09 07:31:56;;;;;;;23.00;18.40;;;17.10;99.90;;;;;;7278737;32;20173;-56
2023/08/09 07:35:57;;;;;;;23.73;18.40;;;18.40;99.90;;;;;;7270041;32;20202;-56
2023/08/09 07:39:59;;;;;;;26.75;19.77;;;18.50;99.90;;;;;;7271933;32;20121;-56
2023/08/09 07:44:01;;;;;;;24.55;18.85;;;18.00;99.90;;;;;;7275720;32;20176;-55
2023/08/09 07:48:04;;;;;;;27.25;20.67;;;17.40;99.90;;;;;;7275670;32;20284;-56
2023/08/09 07:52:06;;;;;;;28.58;21.80;;;17.00;99.90;;;;;;7268245;32;20112;-64
2023/08/09 07:56:08;;;;;;;28.80;19.55;;;16.80;99.90;;;;;;7271683;32;20612;-64
2023/08/09 08:00:12;;;;;;;24.83;17.48;;;16.40;99.90;;;;;;7280246;32;20601;-63
2023/08/09 08:04:16;;;;;;;24.10;18.20;;;16.50;99.90;;;;;;7265931;32;20158;-64
2023/08/09 08:08:18;;;;;;;28.30;18.30;;;16.60;99.90;;;;;;7272335;32;20447;-63
2023/08/09 08:12:22;;;;;;;24.40;17.17;;;16.40;99.90;;;;;;7274712;32;20210;-55
2023/08/09 08:16:24;;;;;;;22.30;16.50;;;16.10;99.90;;;;;;7277703;32;20112;-57
2023/08/09 08:20:26;;;;;;;24.77;16.23;;;16.00;99.90;;;;;;7275397;32;20112;-56
2023/08/09 08:24:28;;;;;;;23.62;15.55;;;15.90;99.90;;;;;;7274946;32;20207;-57
2023/08/09 08:28:30;;;;;;;22.50;15.55;;;16.20;99.90;;;;;;7274168;32;20128;-56
2023/08/09 08:32:31;;;;;;;18.05;14.00;;;16.50;99.90;;;;;;7272504;32;20174;-57
2023/08/09 08:36:33;;;;;;;15.40;12.37;;;16.60;99.90;;;;;;7277178;32;20432;-56
2023/08/09 08:40:35;;;;;;;16.08;10.13;;;16.90;99.90;;;;;;7268709;32;20146;-56
2023/08/09 08:44:37;;;;;;;13.52;10.95;;;17.20;99.90;;;;;;7267648;32;20239;-55
2023/08/09 08:48:39;;;;;;;13.93;10.07;;;17.40;99.90;;;;;;7262354;32;20136;-56
2023/08/09 08:52:45;;;;;;;13.10;10.40;;;17.70;99.90;;;;;;7274406;32;20155;-56
2023/08/09 08:56:50;;;;;;;13.02;9.20;;;17.60;99.90;;;;;;7271827;32;20414;-56
2023/08/09 09:00:52;;;;;;;11.75;9.15;;;17.40;99.90;;;;;;7273642;32;20148;-57
2023/08/09 09:04:53;;;;;;;11.52;7.55;;;18.60;99.90;;;;;;7270375;32;20144;-57
2023/08/09 09:08:55;;;;;;;5.18;3.53;;;20.10;99.90;;;;;;7274833;32;20128;-56
2023/08/09 09:12:57;;;;;;;9.05;4.18;;;20.00;99.90;;;;;;7274486;32;20319;-56
2023/08/09 09:16:59;;;;;;;5.78;3.60;;;19.40;99.90;;;;;;7272063;32;20210;-57
2023/08/09 09:21:02;;;;;;;4.53;3.33;;;18.80;99.90;;;;;;7270742;32;20485;-58
2023/08/09 09:25:10;;;;;;;5.85;3.17;;;18.90;99.90;;;;;;7269595;32;20108;-56
2023/08/09 09:29:12;;;;;;;3.50;2.78;;;19.30;99.90;;;;;;7272765;32;20101;-58
2023/08/09 09:33:16;;;;;;;3.72;2.53;;;19.60;99.90;;;;;;7274277;32;20198;-57
2023/08/09 09:37:25;;;;;;;3.85;2.08;;;19.90;99.90;;;;;;7273208;32;20120;-56
2023/08/09 09:41:27;;;;;;;6.18;1.70;;;20.70;99.90;;;;;;7267125;32;20535;-56
2023/08/09 09:45:30;;;;;;;3.65;1.90;;;20.70;99.90;;;;;;7275125;32;20138;-56
2023/08/09 09:49:35;;;;;;;3.80;1.80;;;20.90;99.90;;;;;;7264509;32;20154;-57
2023/08/09 09:53:37;;;;;;;2.65;1.20;;;21.30;99.90;;;;;;7270861;32;20150;-56
2023/08/09 09:57:38;;;;;;;4.22;1.52;;;21.70;99.90;;;;;;7272721;32;20211;-57
2023/08/09 10:01:44;;;;;;;3.00;1.25;;;22.20;99.90;;;;;;7275612;32;20131;-57
2023/08/09 10:05:47;;;;;;;3.53;1.15;;;22.50;99.90;;;;;;7276813;32;20124;-57
2023/08/09 10:09:50;;;;;;;3.25;0.98;;;23.00;99.90;;;;;;7276132;32;20202;-57
2023/08/09 10:13:55;;;;;;;8.20;1.10;;;23.20;99.90;;;;;;7269111;32;20167;-57
2023/08/09 10:18:03;;;;;;;4.90;1.23;;;23.30;99.90;;;;;;7274239;32;20248;-56
2023/08/09 10:22:04;;;;;;;3.05;1.05;;;22.60;99.90;;;;;;7276562;32;20189;-56
2023/08/09 10:26:10;;;;;;;4.80;1.37;;;21.60;99.90;;;;;;7271300;32;20100;-56
2023/08/09 10:30:13;;;;;;;1.90;1.10;;;21.30;99.90;;;;;;7274914;32;20178;-57
2023/08/09 10:34:16;;;;;;;2.12;1.02;;;21.10;99.90;;;;;;7276400;32;20144;-56
2023/08/09 10:38:20;;;;;;;2.33;1.10;;;20.90;99.90;;;;;;7276161;32;20367;-56
2023/08/09 10:42:27;;;;;;;2.75;0.75;;;20.70;99.90;;;;;;7268651;32;20104;-56
2023/08/09 10:46:33;;;;;;;2.92;1.08;;;20.40;99.90;;;;;;7274222;32;20191;-56
2023/08/09 10:50:35;;;;;;;1.95;1.00;;;20.30;99.90;;;;;;7277438;32;20509;-56
2023/08/09 10:55:08;;;;;;;2.33;1.00;;;20.40;99.90;;;;;;7273565;32;20132;-56
2023/08/09 10:59:24;;;;;;;2.95;1.00;;;20.10;99.90;;;;;;7273748;32;20466;-56
2023/08/09 11:03:26;;;;;;;1.05;0.62;;;20.00;99.90;;;;;;7276241;32;20212;-56
2023/08/09 11:07:27;;;;;;;2.30;0.90;;;20.00;99.90;;;;;;7275936;32;20117;-57
2023/08/09 11:11:29;;;;;;;1.90;0.70;;;19.30;99.90;;;;;;7271730;32;20234;-57
2023/08/09 11:15:32;;;;;;;3.35;0.60;;;19.60;99.90;;;;;;7267944;32;20218;-57
2023/08/09 11:19:33;;;;;;;1.83;1.00;;;19.40;99.90;;;;;;7276107;32;20227;-56
2023/08/09 11:23:37;;;;;;;4.00;1.08;;;19.20;99.90;;;;;;7276955;32;20585;-56
2023/08/09 11:27:39;;;;;;;4.05;1.12;;;19.30;99.90;;;;;;7279900;32;20523;-56
2023/08/09 11:31:50;;;;;;;1.40;0.88;;;19.30;99.90;;;;;;7281873;32;20580;-56
2023/08/09 11:35:52;;;;;;;2.08;1.00;;;19.20;99.90;;;;;;7277003;32;20802;-56
2023/08/09 11:39:53;;;;;;;2.50;1.23;;;19.60;99.90;;;;;;7280513;32;20120;-56
2023/08/09 11:43:55;;;;;;;10.15;3.33;;;19.70;99.90;;;;;;7272594;32;20542;-56
2023/08/09 11:47:57;;;;;;;21.40;4.15;;;19.80;99.90;;;;;;7279766;32;20176;-56
2023/08/09 11:52:00;;;;;;;13.85;2.78;;;20.00;99.90;;;;;;7279590;32;20199;-57
2023/08/09 11:56:11;;;;;;;3.55;1.45;;;20.00;99.90;;;;;;7277616;32;20678;-57
2023/08/09 12:00:15;;;;;;;4.45;1.60;;;20.30;99.90;;;;;;7278512;32;20112;-58
2023/08/09 12:04:21;;;;;;;10.20;2.53;;;20.30;99.90;;;;;;7279000;32;20135;-58
2023/08/09 12:08:36;;;;;;;4.18;1.33;;;20.30;99.90;;;;;;7273893;32;20161;-57
2023/08/09 12:12:40;;;;;;;3.42;1.40;;;20.30;99.90;;;;;;7274155;32;20154;-56
2023/08/09 12:16:42;;;;;;;2.58;1.10;;;20.30;99.90;;;;;;7277791;32;20195;-56
2023/08/09 12:20:44;;;;;;;3.30;1.10;;;20.20;99.90;;;;;;7276365;32;20117;-56
2023/08/09 12:24:46;;;;;;;2.05;1.10;;;20.30;99.90;;;;;;7274935;32;20169;-56
2023/08/09 12:28:48;;;;;;;1.98;1.20;;;20.40;99.90;;;;;;7280394;32;20210;-57
2023/08/09 12:32:50;;;;;;;3.65;1.10;;;20.50;99.90;;;;;;7279495;32;20109;-56
2023/08/09 12:36:52;;;;;;;12.37;3.55;;;20.30;99.90;;;;;;7279247;32;20130;-57
2023/08/09 12:40:54;;;;;;;6.37;2.40;;;20.40;99.90;;;;;;7277939;32;20108;-56
2023/08/09 12:44:59;;;;;;;3.87;1.20;;;20.50;99.90;;;;;;7278469;32;20126;-56
2023/08/09 12:49:01;;;;;;;3.12;1.10;;;20.50;99.90;;;;;;7274743;32;20267;-55
2023/08/09 12:53:03;;;;;;;10.25;2.05;;;20.60;99.90;;;;;;7278845;32;20138;-55
2023/08/09 12:57:09;;;;;;;2.25;1.15;;;20.70;99.90;;;;;;7274531;32;20127;-55
2023/08/09 13:01:12;;;;;;;2.80;1.10;;;20.70;99.90;;;;;;7278370;32;20282;-55
2023/08/09 13:05:15;;;;;;;2.62;1.23;;;21.00;99.90;;;;;;7277076;32;20278;-55
2023/08/09 13:09:18;;;;;;;4.57;1.40;;;21.20;99.90;;;;;;7278349;32;20116;-55
2023/08/09 13:13:19;;;;;;;3.62;1.40;;;21.10;99.90;;;;;;7276496;32;20490;-54
2023/08/09 13:17:21;;;;;;;5.10;1.40;;;21.30;99.90;;;;;;7277930;32;20148;-55
2023/08/09 13:21:23;;;;;;;2.20;1.30;;;21.50;99.90;;;;;;7271982;32;20135;-55
2023/08/09 13:25:25;;;;;;;3.40;1.45;;;21.90;99.90;;;;;;7272877;32;20139;-55
2023/08/09 13:29:27;;;;;;;2.33;1.08;;;22.00;99.90;;;;;;7269441;32;20239;-55
2023/08/09 13:33:29;;;;;;;4.43;1.37;;;22.20;99.90;;;;;;7270206;32;20156;-55
2023/08/09 13:37:31;;;;;;;2.92;1.40;;;22.20;99.90;;;;;;7269218;32;20195;-56
2023/08/09 13:41:33;;;;;;;4.35;1.45;;;22.10;99.90;;;;;;7267761;32;20116;-55
2023/08/09 13:45:35;;;;;;;2.80;1.40;;;22.00;99.90;;;;;;7275122;32;20158;-56
2023/08/09 13:49:37;;;;;;;1.95;1.05;;;21.90;99.90;;;;;;7267574;32;20251;-55
2023/08/09 13:53:38;;;;;;;3.72;1.30;;;22.00;99.90;;;;;;7261014;32;20546;-56
2023/08/09 13:57:40;;;;;;;2.95;1.35;;;21.90;99.90;;;;;;7274109;32;20135;-55
2023/08/09 14:01:42;;;;;;;3.30;1.40;;;21.70;99.90;;;;;;7268366;32;20284;-55
2023/08/09 14:05:44;;;;;;;1.80;1.30;;;21.50;99.90;;;;;;7276320;32;20165;-54
2023/08/09 14:09:45;;;;;;;2.15;1.10;;;21.40;99.90;;;;;;7268930;32;20142;-55
2023/08/09 14:13:47;;;;;;;4.07;1.20;;;21.10;99.90;;;;;;7265640;32;20223;-56
2023/08/09 14:17:50;;;;;;;2.33;1.30;;;21.10;99.90;;;;;;7264145;32;20123;-55
2023/08/09 14:21:51;;;;;;;2.40;1.20;;;21.00;99.90;;;;;;7265678;32;20589;-57
2023/08/09 14:25:53;;;;;;;2.72;1.40;;;20.80;99.90;;;;;;7269434;32;20271;-55
2023/08/09 14:29:55;;;;;;;3.58;1.20;;;20.80;99.90;;;;;;7271633;32;20475;-55
2023/08/09 14:33:58;;;;;;;2.70;1.60;;;21.00;99.90;;;;;;7271587;32;20175;-57
2023/08/09 14:38:00;;;;;;;2.50;1.33;;;21.10;99.90;;;;;;7266797;32;20919;-55
2023/08/09 14:42:05;;;;;;;1.20;0.98;;;21.10;99.90;;;;;;7268997;32;20228;-56
2023/08/09 14:46:07;;;;;;;2.12;1.10;;;21.00;99.90;;;;;;7271426;32;20590;-55
2023/08/09 14:50:09;;;;;;;1.30;1.00;;;21.10;99.90;;;;;;7272299;32;20167;-56
2023/08/09 14:54:11;;;;;;;3.80;1.20;;;21.40;99.90;;;;;;7272733;32;20105;-56
2023/08/09 14:58:17;;;;;;;1.95;0.98;;;21.20;99.90;;;;;;7274277;32;20794;-56
2023/08/09 15:02:19;;;;;;;3.67;1.37;;;21.00;99.90;;;;;;7274607;32;20531;-56
2023/08/09 15:06:22;;;;;;;3.67;1.37;;;20.70;99.90;;;;;;7276457;32;20164;-56
2023/08/09 15:10:24;;;;;;;2.55;1.10;;;20.80;99.90;;;;;;7276413;32;20801;-55
2023/08/09 15:14:26;;;;;;;3.95;1.33;;;20.60;99.90;;;;;;7278139;32;20136;-56
2023/08/09 15:18:28;;;;;;;3.45;1.52;;;20.90;99.90;;;;;;7271118;32;20164;-56
2023/08/09 15:22:30;;;;;;;2.37;1.40;;;21.20;99.90;;;;;;7272326;32;20140;-56
2023/08/09 15:26:31;;;;;;;5.28;1.30;;;21.40;99.90;;;;;;7271076;32;20203;-56
2023/08/09 15:30:33;;;;;;;3.67;1.30;;;21.40;99.90;;;;;;7262273;32;20242;-56
2023/08/09 15:34:35;;;;;;;4.18;1.67;;;21.50;99.90;;;;;;7271382;32;20140;-56
2023/08/09 15:38:37;;;;;;;2.30;1.20;;;21.40;99.90;;;;;;7275691;32;20252;-56
2023/08/09 15:42:40;;;;;;;4.30;1.40;;;21.20;99.90;;;;;;7273126;32;20272;-57
2023/08/09 15:46:43;;;;;;;3.53;1.50;;;20.90;99.90;;;;;;7264744;32;20279;-56
2023/08/09 15:50:44;;;;;;;1.67;1.40;;;20.70;99.90;;;;;;7268289;32;20624;-55
2023/08/09 15:54:46;;;;;;;2.80;1.30;;;20.40;99.90;;;;;;7265767;32;20238;-56
2023/08/09 15:58:48;;;;;;;3.35;1.37;;;20.20;99.90;;;;;;7254026;32;20567;-55
2023/08/09 16:02:53;;;;;;;2.15;1.40;;;20.20;99.90;;;;;;7268722;32;20510;-55
2023/08/09 16:06:55;;;;;;;2.20;1.67;;;20.30;99.90;;;;;;7268611;32;20130;-55
2023/08/09 16:10:57;;;;;;;2.85;1.30;;;20.40;99.90;;;;;;7268996;32;20280;-55
2023/08/09 16:14:59;;;;;;;2.75;1.55;;;20.60;99.90;;;;;;7268035;32;20608;-55
2023/08/09 16:19:00;;;;;;;30.37;12.85;;;20.70;99.90;;;;;;7271560;32;20568;-55
2023/08/09 16:23:02;;;;;;;5.72;1.98;;;20.60;99.90;;;;;;7273757;32;20207;-55
2023/08/09 16:27:04;;;;;;;21.95;8.77;;;20.50;99.90;;;;;;7272076;32;20773;-55
2023/08/09 16:31:06;;;;;;;4.40;2.45;;;20.40;99.90;;;;;;7267959;32;20318;-55
2023/08/09 16:35:09;;;;;;;12.00;5.65;;;20.40;99.90;;;;;;7261760;32;20136;-55
2023/08/09 16:39:11;;;;;;;30.85;12.32;;;20.30;99.90;;;;;;7249274;32;20254;-56
2023/08/09 16:43:13;;;;;;;30.45;10.85;;;20.10;99.90;;;;;;7268329;32;20199;-56
2023/08/09 16:47:15;;;;;;;23.05;7.97;;;20.00;99.90;;;;;;7274812;32;21952;-56
2023/08/09 16:56:20;;;;;;;9.70;2.80;;;19.90;99.90;;;;;;7253225;32;20100;-56
2023/08/09 17:00:22;;;;;;;3.83;2.42;;;19.90;99.90;;;;;;7268167;32;21337;-55
2023/08/09 17:04:25;;;;;;;19.70;10.98;;;20.10;99.90;;;;;;7268210;32;20202;-55
2023/08/09 17:08:27;;;;;;;4.75;2.90;;;20.10;99.90;;;;;;7266462;32;20108;-55
2023/08/09 17:12:28;;;;;;;13.70;4.50;;;20.00;99.90;;;;;;7273640;32;20188;-55
2023/08/09 17:16:30;;;;;;;4.00;1.80;;;19.90;99.90;;;;;;7267359;32;20497;-55
2023/08/09 17:20:32;;;;;;;3.85;1.77;;;19.80;99.90;;;;;;7272113;32;20226;-56
2023/08/09 17:24:37;;;;;;;3.67;1.60;;;19.70;99.90;;;;;;7268013;32;20147;-56
2023/08/09 17:28:41;;;;;;;2.87;1.58;;;19.60;99.90;;;;;;7267338;32;20178;-56
2023/08/09 17:32:43;;;;;;;5.60;1.20;;;19.60;99.90;;;;;;7263599;32;20487;-55
2023/08/09 17:36:45;;;;;;;3.72;1.40;;;19.80;99.90;;;;;;7271512;32;20233;-56
2023/08/09 17:40:47;;;;;;;2.90;1.10;;;19.80;99.90;;;;;;7270633;32;20527;-57
2023/08/09 17:44:48;;;;;;;3.70;1.40;;;19.70;99.90;;;;;;7271093;32;20162;-56
2023/08/09 17:48:51;;;;;;;3.75;1.50;;;19.70;99.90;;;;;;7265923;32;20490;-61
2023/08/09 17:52:53;;;;;;;4.18;1.55;;;19.70;99.90;;;;;;7271787;32;20269;-62
2023/08/09 17:56:55;;;;;;;5.05;1.30;;;19.70;99.90;;;;;;7271699;32;20104;-62
2023/08/09 18:00:57;;;;;;;3.10;1.23;;;19.70;99.90;;;;;;7268574;32;20163;-56
2023/08/09 18:04:58;;;;;;;2.33;1.10;;;19.40;99.90;;;;;;7271360;32;20716;-56
2023/08/09 18:09:08;;;;;;;3.03;1.10;;;19.30;99.90;;;;;;7271788;32;20136;-56
2023/08/09 18:13:10;;;;;;;3.62;1.12;;;19.30;99.90;;;;;;7267788;32;20104;-56
2023/08/09 18:17:11;;;;;;;8.68;1.58;;;19.10;99.90;;;;;;7273490;32;20130;-57
2023/08/09 18:21:13;;;;;;;4.15;1.30;;;19.00;99.90;;;;;;7264726;32;20112;-56
2023/08/09 18:25:16;;;;;;;4.57;1.10;;;18.90;99.90;;;;;;7270832;32;20810;-57
2023/08/09 18:29:18;;;;;;;2.47;1.23;;;18.80;99.90;;;;;;7269470;32;20297;-56
2023/08/09 18:33:20;;;;;;;2.65;1.08;;;18.70;99.90;;;;;;7263073;32;20112;-56
2023/08/09 18:37:22;;;;;;;2.08;1.17;;;18.50;99.90;;;;;;7265603;32;20146;-56
2023/08/09 18:41:24;;;;;;;3.25;1.10;;;18.30;99.90;;;;;;7271906;32;20128;-56
2023/08/09 18:45:26;;;;;;;4.00;1.15;;;18.20;99.90;;;;;;7271510;32;20143;-56
2023/08/09 18:49:27;;;;;;;1.67;1.12;;;18.00;99.90;;;;;;7270106;32;20109;-56
2023/08/09 18:53:29;;;;;;;2.95;1.37;;;17.90;99.90;;;;;;7270573;32;20125;-56
2023/08/09 18:57:32;;;;;;;2.53;1.30;;;17.60;99.90;;;;;;7262712;32;20162;-56
2023/08/09 19:01:34;;;;;;;3.45;1.50;;;17.40;99.90;;;;;;7266404;32;20104;-57
2023/08/09 19:05:35;;;;;;;4.03;1.40;;;17.10;99.90;;;;;;7264506;32;20135;-56
2023/08/09 19:09:38;;;;;;;5.53;1.55;;;16.90;99.90;;;;;;7269008;32;20258;-56
2023/08/09 19:13:40;;;;;;;3.92;2.12;;;16.70;99.90;;;;;;7269867;32;20558;-56
2023/08/09 19:17:41;;;;;;;4.68;1.40;;;16.60;99.90;;;;;;7273035;32;20131;-56
2023/08/09 19:21:43;;;;;;;5.50;1.50;;;16.50;99.90;;;;;;7263714;32;20130;-56
2023/08/09 19:25:45;;;;;;;2.60;1.23;;;16.40;99.90;;;;;;7274496;32;20772;-55
2023/08/09 19:29:47;;;;;;;2.85;1.33;;;16.20;99.90;;;;;;7268348;32;20132;-55
2023/08/09 19:33:49;;;;;;;4.07;1.50;;;16.20;99.90;;;;;;7274739;32;20123;-55
2023/08/09 19:37:54;;;;;;;3.03;1.42;;;16.10;99.90;;;;;;7267526;32;20195;-55
2023/08/09 19:41:56;;;;;;;6.37;1.73;;;15.90;99.90;;;;;;7278921;32;20218;-55
2023/08/09 19:45:58;;;;;;;4.82;1.52;;;15.70;99.90;;;;;;7275444;32;20116;-55
2023/08/09 19:50:00;;;;;;;6.68;1.77;;;15.60;99.90;;;;;;7278728;32;20334;-55
2023/08/09 19:54:01;;;;;;;5.25;2.03;;;15.40;99.90;;;;;;7272095;32;20245;-55
2023/08/09 19:58:03;;;;;;;3.87;1.60;;;15.30;99.90;;;;;;7272327;32;20533;-55
2023/08/09 20:02:05;;;;;;;11.15;2.15;;;15.30;99.90;;;;;;7269218;32;20178;-55
2023/08/09 20:06:11;;;;;;;7.50;1.70;;;15.10;99.90;;;;;;7264880;32;20416;-55
2023/08/09 20:10:13;;;;;;;8.65;1.75;;;14.90;99.90;;;;;;7267339;32;20199;-55
2023/08/09 20:14:15;;;;;;;11.55;1.77;;;14.80;99.90;;;;;;7269566;32;20132;-57
2023/08/09 20:18:20;;;;;;;8.43;1.58;;;14.60;99.90;;;;;;7275897;32;20169;-55
2023/08/09 20:22:23;;;;;;;5.20;1.52;;;14.50;99.90;;;;;;7273878;32;20204;-55
2023/08/09 20:26:25;;;;;;;7.82;1.60;;;14.40;99.90;;;;;;7272049;32;20105;-55
2023/08/09 20:30:29;;;;;;;6.35;1.77;;;14.30;99.90;;;;;;7280383;32;20503;-55
2023/08/09 20:34:31;;;;;;;4.78;1.60;;;14.20;99.90;;;;;;7271756;32;20273;-55
2023/08/09 20:38:34;;;;;;;9.10;1.60;;;14.10;99.90;;;;;;7274121;32;20458;-55
2023/08/09 20:42:36;;;;;;;7.65;1.80;;;14.10;99.90;;;;;;7277235;32;20108;-55
2023/08/09 20:46:38;;;;;;;6.00;1.70;;;14.00;99.90;;;;;;7267017;32;20527;-55
2023/08/09 20:50:40;;;;;;;5.43;1.85;;;13.90;99.90;;;;;;7272609;32;20104;-55
2023/08/09 20:54:42;;;;;;;6.37;2.00;;;13.90;99.90;;;;;;7277342;32;20525;-55
2023/08/09 20:58:44;;;;;;;3.90;1.95;;;13.80;99.90;;;;;;7272371;32;20126;-55
2023/08/09 21:02:46;;;;;;;5.82;2.17;;;13.70;99.90;;;;;;7263599;32;20104;-55